Time;durP1;ratioP1;P1;durP2;ratioP2;P2;SDS_P1;SDS_P2;PMS_P1;PMS_P2;Temp;Humidity;BMP_temperature;BMP_pressure;BME280_temperature;BME280_humidity;BME280_pressure;Samples;Min_cycle;Max_cycle;Signal;HPM_P1;HPM_P2
2021/12/02 00:01:18;;;;;;;;;;;;;;;-0.44;100.00;94363.03;10353355;28;19917;-73
2021/12/02 00:06:19;;;;;;;;;;;;;;;-0.52;100.00;94364.09;10361097;28;19999;-74
2021/12/02 00:11:20;;;;;;;;;;;;;;;-0.53;100.00;94376.50;10375425;28;20012;-74
2021/12/02 00:16:26;;;;;;;;;;;;;;;-0.42;100.00;94372.38;10360824;28;19917;-72
2021/12/02 00:21:27;;;;;;;;;;;;;;;-0.66;100.00;94392.41;10361038;28;19944;-75
2021/12/02 00:26:28;;;;;;;;;;;;;;;-0.60;100.00;94388.94;10360454;28;20048;-75
2021/12/02 00:31:30;;;;;;;;;;;;;;;-0.59;100.00;94382.59;10375655;28;19921;-73
2021/12/02 00:36:31;;;;;;;;;;;;;;;-0.75;100.00;94383.13;10391630;28;19967;-79
2021/12/02 00:41:32;;;;;;;;;;;;;;;-0.70;100.00;94396.47;10364217;28;19928;-77
2021/12/02 00:46:33;;;;;;;;;;;;;;;-0.61;100.00;94399.69;10375957;28;19924;-78
2021/12/02 00:51:35;;;;;;;;;;;;;;;-0.73;100.00;94379.22;10360135;28;20302;-75
2021/12/02 00:56:35;;;;;;;;;;;;;;;-0.50;100.00;94379.72;10361093;28;19932;-74
2021/12/02 01:01:37;;;;;;;;;;;;;;;-0.56;100.00;94378.75;10372456;28;20560;-77
2021/12/02 01:06:42;;;;;;;;;;;;;;;-0.45;100.00;94387.81;10360137;28;19917;-74
2021/12/02 01:11:43;;;;;;;;;;;;;;;-0.62;100.00;94376.97;10342644;28;19928;-75
2021/12/02 01:16:43;;;;;;;;;;;;;;;-0.58;100.00;94396.63;10360561;28;19913;-77
2021/12/02 01:21:44;;;;;;;;;;;;;;;-0.53;100.00;94397.59;10359901;28;20299;-76
2021/12/02 01:26:48;;;;;;;;;;;;;;;-0.62;100.00;94388.31;10365991;28;19925;-74
2021/12/02 01:31:50;;;;;;;;;;;;;;;-0.58;100.00;94378.94;10367223;28;19936;-79
2021/12/02 01:36:52;;;;;;;;;;;;;;;-0.60;100.00;94388.94;10367803;28;19914;-75
2021/12/02 01:41:54;;;;;;;;;;;;;;;-0.73;100.00;94397.69;10366930;28;19963;-73
2021/12/02 01:46:56;;;;;;;;;;;;;;;-0.76;100.00;94399.97;10392588;28;20045;-74
2021/12/02 01:51:59;;;;;;;;;;;;;;;-0.92;100.00;94372.22;10382512;28;20051;-79
2021/12/02 01:57:09;;;;;;;;;;;;;;;-1.14;100.00;94382.28;10365447;28;19975;-72
2021/12/02 02:02:10;;;;;;;;;;;;;;;-1.08;100.00;94363.78;10366900;28;20430;-76
2021/12/02 02:07:11;;;;;;;;;;;;;;;-1.24;100.00;94359.00;10365855;28;20276;-74
2021/12/02 02:12:13;;;;;;;;;;;;;;;-1.11;100.00;94353.66;10365922;28;19913;-75
2021/12/02 02:17:25;;;;;;;;;;;;;;;-1.17;100.00;94357.16;10366226;28;20372;-79
2021/12/02 02:22:26;;;;;;;;;;;;;;;-0.99;100.00;94340.63;10365783;28;19959;-74
2021/12/02 02:27:26;;;;;;;;;;;;;;;-1.02;100.00;94351.59;10364797;28;20017;-75
2021/12/02 02:32:26;;;;;;;;;;;;;;;-0.81;100.00;94353.13;10365220;28;19921;-76
2021/12/02 02:37:32;;;;;;;;;;;;;;;-0.67;100.00;94367.03;10378518;28;19922;-75
2021/12/02 02:42:33;;;;;;;;;;;;;;;-0.50;100.00;94355.97;10382886;28;19913;-72
2021/12/02 02:47:33;;;;;;;;;;;;;;;-0.45;100.00;94350.84;10366260;28;19917;-72
2021/12/02 02:52:34;;;;;;;;;;;;;;;-0.43;100.00;94338.25;10363696;28;19913;-74
2021/12/02 02:57:48;;;;;;;;;;;;;;;-0.36;100.00;94363.59;10373308;28;19940;-76
2021/12/02 03:02:57;;;;;;;;;;;;;;;-0.24;100.00;94342.59;10380401;28;19917;-75
2021/12/02 03:07:59;;;;;;;;;;;;;;;-0.35;100.00;94344.09;10363578;28;19917;-76
2021/12/02 03:13:14;;;;;;;;;;;;;;;-0.32;100.00;94337.56;10363869;28;20298;-75
2021/12/02 03:18:14;;;;;;;;;;;;;;;-0.42;100.00;94334.59;10363756;28;19920;-74
2021/12/02 03:23:14;;;;;;;;;;;;;;;-0.30;100.00;94338.16;10374668;28;19921;-78
2021/12/02 03:28:15;;;;;;;;;;;;;;;-0.32;100.00;94318.25;10404424;28;20399;-77
2021/12/02 03:33:15;;;;;;;;;;;;;;;-0.37;100.00;94326.84;10403300;28;19913;-75
2021/12/02 03:38:15;;;;;;;;;;;;;;;-0.25;100.00;94324.28;10404317;28;19920;-77
2021/12/02 03:43:16;;;;;;;;;;;;;;;-0.32;100.00;94319.09;10403165;28;19987;-75
2021/12/02 03:48:16;;;;;;;;;;;;;;;-0.37;100.00;94295.94;10401826;28;20402;-78
2021/12/02 03:53:16;;;;;;;;;;;;;;;-0.37;100.00;94314.44;10402863;28;19919;-77
2021/12/02 03:58:17;;;;;;;;;;;;;;;-0.42;100.00;94297.63;10403254;28;19913;-75
2021/12/02 04:03:17;;;;;;;;;;;;;;;-0.31;100.00;94309.31;10393508;28;19967;-76
2021/12/02 04:08:18;;;;;;;;;;;;;;;-0.34;100.00;94307.91;10361046;28;20019;-77
2021/12/02 04:13:24;;;;;;;;;;;;;;;-0.22;100.00;94308.84;10361587;28;19921;-74
2021/12/02 04:18:24;;;;;;;;;;;;;;;-0.18;100.00;94296.81;10366440;28;20376;-75
2021/12/02 04:23:25;;;;;;;;;;;;;;;-0.21;100.00;94299.91;10363173;28;20303;-75
2021/12/02 04:28:25;;;;;;;;;;;;;;;-0.24;100.00;94310.91;10360015;28;20026;-75
2021/12/02 04:33:25;;;;;;;;;;;;;;;-0.21;100.00;94297.25;10373515;28;19913;-81
2021/12/02 04:38:29;;;;;;;;;;;;;;;-0.36;100.00;94294.13;10401815;28;20297;-75
2021/12/02 04:43:30;;;;;;;;;;;;;;;-0.53;100.00;94292.03;10401652;28;20310;-79
2021/12/02 04:48:30;;;;;;;;;;;;;;;-0.89;100.00;94298.75;10401142;28;19917;-74
2021/12/02 04:53:30;;;;;;;;;;;;;;;-0.89;100.00;94309.31;10400516;28;20008;-79
2021/12/02 04:58:30;;;;;;;;;;;;;;;-0.88;100.00;94299.56;10375508;28;19917;-73
2021/12/02 05:03:31;;;;;;;;;;;;;;;-0.84;100.00;94278.84;10362436;28;20398;-78
2021/12/02 05:08:31;;;;;;;;;;;;;;;-0.86;100.00;94285.16;10375858;28;19917;-80
2021/12/02 05:13:32;;;;;;;;;;;;;;;-0.82;100.00;94275.00;10382331;28;20381;-77
2021/12/02 05:18:33;;;;;;;;;;;;;;;-0.93;100.00;94267.75;10400705;28;20363;-76
2021/12/02 05:23:33;;;;;;;;;;;;;;;-0.78;100.00;94278.81;10362237;28;19925;-77
2021/12/02 05:28:34;;;;;;;;;;;;;;;-0.79;100.00;94274.56;10359914;28;19929;-72
2021/12/02 05:33:34;;;;;;;;;;;;;;;-0.70;100.00;94277.72;10372243;28;20063;-76
2021/12/02 05:38:35;;;;;;;;;;;;;;;-0.65;100.00;94270.00;10397878;28;19921;-76
2021/12/02 05:43:35;;;;;;;;;;;;;;;-0.69;100.00;94268.81;10374759;28;20498;-73
2021/12/02 05:48:36;;;;;;;;;;;;;;;-0.66;100.00;94260.44;10358234;28;19968;-80
2021/12/02 05:53:36;;;;;;;;;;;;;;;-0.97;100.00;94263.94;10398297;28;20024;-75
2021/12/02 05:58:36;;;;;;;;;;;;;;;-0.84;100.00;94268.31;10399644;28;20385;-76
2021/12/02 06:03:38;;;;;;;;;;;;;;;-0.86;100.00;94277.22;10396625;28;19918;-74
2021/12/02 06:08:38;;;;;;;;;;;;;;;-0.78;100.00;94275.34;10398810;28;20421;-73
2021/12/02 06:13:40;;;;;;;;;;;;;;;-1.01;100.00;94273.28;10404702;28;19913;-74
2021/12/02 06:18:40;;;;;;;;;;;;;;;-0.92;100.00;94288.66;10400909;28;20168;-74
2021/12/02 06:23:41;;;;;;;;;;;;;;;-0.79;100.00;94282.47;10401497;28;19955;-79
2021/12/02 06:28:42;;;;;;;;;;;;;;;-0.56;100.00;94291.63;10400737;28;19924;-75
2021/12/02 06:33:42;;;;;;;;;;;;;;;-0.46;100.00;94284.06;10404179;28;20515;-75
2021/12/02 06:38:42;;;;;;;;;;;;;;;-0.45;100.00;94285.66;10406123;28;20012;-75
2021/12/02 06:43:42;;;;;;;;;;;;;;;-0.28;100.00;94293.03;10404124;28;19913;-77
2021/12/02 06:48:43;;;;;;;;;;;;;;;-0.11;100.00;94294.13;10403553;28;19960;-74
2021/12/02 06:53:43;;;;;;;;;;;;;;;0.05;100.00;94303.31;10371911;28;19914;-76
2021/12/02 06:58:44;;;;;;;;;;;;;;;0.25;100.00;94281.97;10364002;28;20371;-74
2021/12/02 07:03:44;;;;;;;;;;;;;;;0.36;100.00;94285.69;10363021;28;19923;-73
2021/12/02 07:08:44;;;;;;;;;;;;;;;0.33;100.00;94273.72;10362366;28;19917;-73
2021/12/02 07:13:47;;;;;;;;;;;;;;;0.45;100.00;94284.41;10379135;28;19976;-76
2021/12/02 07:18:54;;;;;;;;;;;;;;;0.48;100.00;94278.66;10362337;28;20303;-75
2021/12/02 07:23:54;;;;;;;;;;;;;;;0.42;100.00;94290.13;10362429;28;20342;-73
2021/12/02 07:28:54;;;;;;;;;;;;;;;0.62;100.00;94283.78;10362038;28;19937;-74
2021/12/02 07:33:56;;;;;;;;;;;;;;;0.85;100.00;94278.63;10362035;28;19975;-77
2021/12/02 07:38:56;;;;;;;;;;;;;;;1.00;100.00;94277.41;10381609;28;20403;-72
2021/12/02 07:43:56;;;;;;;;;;;;;;;1.39;100.00;94275.22;10402922;28;19917;-80
2021/12/02 07:48:57;;;;;;;;;;;;;;;1.80;100.00;94273.56;10400392;28;19964;-74
2021/12/02 07:53:58;;;;;;;;;;;;;;;2.20;100.00;94274.69;10376056;28;20000;-74
2021/12/02 07:58:59;;;;;;;;;;;;;;;2.54;100.00;94267.72;10369041;28;20303;-75
2021/12/02 08:03:59;;;;;;;;;;;;;;;2.98;100.00;94271.75;10366478;28;19917;-74
2021/12/02 08:08:59;;;;;;;;;;;;;;;3.27;100.00;94274.41;10360494;28;19917;-76
2021/12/02 08:14:00;;;;;;;;;;;;;;;3.76;100.00;94277.34;10361425;28;19925;-74
2021/12/02 08:19:01;;;;;;;;;;;;;;;4.42;100.00;94261.56;10360446;28;19910;-78
2021/12/02 08:24:01;;;;;;;;;;;;;;;5.23;100.00;94264.59;10361488;28;20473;-74
2021/12/02 08:29:03;;;;;;;;;;;;;;;5.56;100.00;94268.13;10343571;28;20071;-75
2021/12/02 08:34:03;;;;;;;;;;;;;;;6.37;100.00;94266.34;10360261;28;19913;-75
2021/12/02 08:39:06;;;;;;;;;;;;;;;7.07;100.00;94258.91;10359447;28;19914;-75
2021/12/02 08:44:07;;;;;;;;;;;;;;;7.44;95.16;94267.84;10361061;28;19914;-75
2021/12/02 08:49:07;;;;;;;;;;;;;;;7.98;81.00;94259.31;10359620;28;19945;-75
2021/12/02 08:54:07;;;;;;;;;;;;;;;8.33;84.28;94241.59;10375283;28;19917;-75
2021/12/02 08:59:08;;;;;;;;;;;;;;;8.75;77.14;94230.78;10361682;28;19914;-76
2021/12/02 09:04:09;;;;;;;;;;;;;;;8.67;75.89;94219.56;10378002;28;20000;-74
2021/12/02 09:09:09;;;;;;;;;;;;;;;9.39;64.61;94227.25;10360672;28;20017;-78
2021/12/02 09:14:09;;;;;;;;;;;;;;;8.43;65.04;94208.63;10361257;28;19913;-78
2021/12/02 09:19:10;;;;;;;;;;;;;;;8.96;69.80;94197.47;10359323;28;19983;-78
2021/12/02 09:24:18;;;;;;;;;;;;;;;9.10;71.54;94207.56;10364749;28;19925;-74
2021/12/02 09:29:19;;;;;;;;;;;;;;;9.72;63.48;94189.19;10358769;28;19925;-75
2021/12/02 09:34:19;;;;;;;;;;;;;;;10.87;58.04;94187.78;10359738;28;19924;-76
2021/12/02 09:39:20;;;;;;;;;;;;;;;12.17;52.79;94190.19;10360210;28;20372;-78
2021/12/02 09:44:20;;;;;;;;;;;;;;;13.59;47.57;94181.41;10375735;28;20422;-75
2021/12/02 09:49:21;;;;;;;;;;;;;;;15.82;42.82;94143.44;10366319;28;20546;-77
2021/12/02 09:54:28;;;;;;;;;;;;;;;17.93;38.46;94148.59;10381743;28;19913;-77
2021/12/02 10:04:30;;;;;;;;;;;;;;;20.31;33.26;94132.19;10365438;28;19920;-76
2021/12/02 10:09:50;;;;;;;;;;;;;;;21.74;31.33;94113.28;10365238;28;20380;-76
2021/12/02 10:14:59;;;;;;;;;;;;;;;22.27;30.70;94096.31;10364735;28;19917;-72
2021/12/02 10:25:32;;;;;;;;;;;;;;;23.47;28.29;94089.66;10365678;28;19925;-75
2021/12/02 10:30:33;;;;;;;;;;;;;;;23.76;28.42;94089.22;10380820;28;19918;-75
2021/12/02 10:35:38;;;;;;;;;;;;;;;23.87;26.34;94069.00;10380480;28;19940;-75
2021/12/02 10:40:38;;;;;;;;;;;;;;;23.81;27.18;94064.19;10365352;28;19933;-75
2021/12/02 10:45:38;;;;;;;;;;;;;;;24.08;26.18;94059.41;10364265;28;19933;-74
2021/12/02 10:50:40;;;;;;;;;;;;;;;20.91;30.81;94057.63;10364661;28;19963;-73
2021/12/02 10:55:40;;;;;;;;;;;;;;;20.61;31.09;94044.44;10379657;28;19914;-75
2021/12/02 11:00:43;;;;;;;;;;;;;;;21.76;29.75;94032.47;10363190;28;19928;-79
2021/12/02 11:05:47;;;;;;;;;;;;;;;22.54;29.23;94015.06;10367848;28;19953;-75
2021/12/02 11:10:51;;;;;;;;;;;;;;;20.48;31.67;94016.47;10363157;28;20445;-78
2021/12/02 11:15:52;;;;;;;;;;;;;;;17.56;35.20;94035.09;10378531;28;20371;-75
2021/12/02 11:21:02;;;;;;;;;;;;;;;19.32;33.04;94024.72;10378702;28;20303;-74
2021/12/02 11:26:10;;;;;;;;;;;;;;;21.04;31.33;94011.06;10362368;28;20016;-75
2021/12/02 11:31:13;;;;;;;;;;;;;;;22.55;28.69;93992.00;10378043;28;20395;-76
2021/12/02 11:36:16;;;;;;;;;;;;;;;22.60;29.29;93986.19;10378422;28;19967;-78
2021/12/02 11:41:19;;;;;;;;;;;;;;;22.07;28.84;93983.38;10378194;28;19936;-74
2021/12/02 11:46:19;;;;;;;;;;;;;;;20.56;30.49;93981.13;10361230;28;20308;-78
2021/12/02 11:51:20;;;;;;;;;;;;;;;17.83;34.70;93994.84;10361562;28;19914;-75
2021/12/02 11:56:21;;;;;;;;;;;;;;;14.54;40.62;93999.25;10377078;28;19921;-72
2021/12/02 12:01:23;;;;;;;;;;;;;;;12.65;43.57;93974.97;10361197;28;20398;-74
2021/12/02 12:06:31;;;;;;;;;;;;;;;11.24;48.74;93985.28;10362766;28;19959;-74
2021/12/02 12:11:32;;;;;;;;;;;;;;;9.95;53.55;93977.47;10359840;28;20437;-75
2021/12/02 12:16:39;;;;;;;;;;;;;;;9.47;58.28;93973.72;10362197;28;19917;-76
2021/12/02 12:21:41;;;;;;;;;;;;;;;9.15;63.71;93960.91;10376482;28;19914;-75
2021/12/02 12:26:45;;;;;;;;;;;;;;;8.88;66.26;93967.59;10361792;28;19936;-78
2021/12/02 12:31:52;;;;;;;;;;;;;;;8.85;73.32;93966.28;10376676;28;19917;-74
2021/12/02 12:36:52;;;;;;;;;;;;;;;8.75;72.89;93958.34;10376398;28;19932;-77
2021/12/02 12:42:11;;;;;;;;;;;;;;;8.72;72.86;93954.34;10359604;28;19914;-75
2021/12/02 12:47:12;;;;;;;;;;;;;;;8.80;70.70;93954.81;10376178;28;19917;-77
2021/12/02 12:52:17;;;;;;;;;;;;;;;8.93;70.87;93943.44;10360847;28;19913;-77
2021/12/02 12:57:17;;;;;;;;;;;;;;;8.71;70.18;93938.53;10359033;28;19925;-79
2021/12/02 13:02:17;;;;;;;;;;;;;;;8.72;76.64;93938.25;10360154;28;20299;-74
2021/12/02 13:07:19;;;;;;;;;;;;;;;8.25;76.52;93936.97;10375745;28;19921;-79
2021/12/02 13:12:21;;;;;;;;;;;;;;;8.35;83.22;93944.13;10366575;28;19924;-74
2021/12/02 13:17:34;;;;;;;;;;;;;;;8.16;82.25;93931.41;10398862;28;20310;-73
2021/12/02 13:22:34;;;;;;;;;;;;;;;8.10;84.76;93929.03;10376591;28;19932;-74
2021/12/02 13:27:36;;;;;;;;;;;;;;;8.06;88.38;93939.50;10350960;28;19929;-77
2021/12/02 13:32:36;;;;;;;;;;;;;;;7.94;87.04;93920.28;10403719;28;19960;-73
2021/12/02 13:37:36;;;;;;;;;;;;;;;7.57;88.91;93916.22;10406819;28;19921;-75
2021/12/02 13:42:36;;;;;;;;;;;;;;;7.36;90.49;93909.06;10407341;28;19975;-75
2021/12/02 13:47:41;;;;;;;;;;;;;;;7.43;99.14;93902.63;10407624;28;20330;-76
2021/12/02 13:52:51;;;;;;;;;;;;;;;7.18;99.02;93896.28;10407754;28;19913;-77
2021/12/02 13:57:55;;;;;;;;;;;;;;;7.04;100.00;93881.94;10407270;28;20010;-77
2021/12/02 14:03:01;;;;;;;;;;;;;;;7.16;100.00;93888.56;10407559;28;20371;-76
2021/12/02 14:08:25;;;;;;;;;;;;;;;7.12;100.00;93892.06;10405911;28;20021;-76
2021/12/02 14:13:26;;;;;;;;;;;;;;;7.12;100.00;93887.50;10399957;28;20338;-76
2021/12/02 14:18:28;;;;;;;;;;;;;;;7.07;100.00;93894.72;10403325;28;19936;-72
2021/12/02 14:23:50;;;;;;;;;;;;;;;6.54;100.00;93924.47;10397504;28;20437;-73
2021/12/02 14:28:51;;;;;;;;;;;;;;;6.56;100.00;93896.44;10376267;28;20026;-79
2021/12/02 14:33:53;;;;;;;;;;;;;;;6.64;100.00;93887.06;10363243;28;19923;-77
2021/12/02 14:39:04;;;;;;;;;;;;;;;6.47;100.00;93906.84;10366052;28;19983;-76
2021/12/02 14:44:07;;;;;;;;;;;;;;;6.44;100.00;93882.56;10380508;28;19936;-74
2021/12/02 14:49:07;;;;;;;;;;;;;;;6.42;100.00;93906.03;10380789;28;19914;-76
2021/12/02 14:54:07;;;;;;;;;;;;;;;6.18;100.00;93917.22;10380021;28;19917;-79
2021/12/02 14:59:08;;;;;;;;;;;;;;;5.93;100.00;93936.63;10388371;28;19921;-75
2021/12/02 15:04:16;;;;;;;;;;;;;;;6.05;100.00;93907.09;10393457;28;20367;-78
2021/12/02 15:09:34;;;;;;;;;;;;;;;5.90;100.00;93871.31;10397333;28;19948;-75
2021/12/02 15:14:34;;;;;;;;;;;;;;;6.09;100.00;93916.16;10362964;28;19921;-75
2021/12/02 15:19:39;;;;;;;;;;;;;;;5.93;100.00;93916.13;10384110;28;19921;-76
2021/12/02 15:24:40;;;;;;;;;;;;;;;5.90;100.00;93903.31;10395016;28;20236;-75
2021/12/02 15:29:42;;;;;;;;;;;;;;;5.93;100.00;93905.44;10393660;28;20374;-74
2021/12/02 15:34:42;;;;;;;;;;;;;;;5.76;100.00;93891.53;10375078;28;19940;-75
2021/12/02 15:39:42;;;;;;;;;;;;;;;5.81;100.00;93899.56;10361636;28;19929;-72
2021/12/02 15:44:43;;;;;;;;;;;;;;;5.65;100.00;93894.19;10399120;28;19920;-74
2021/12/02 15:49:53;;;;;;;;;;;;;;;5.85;100.00;93884.63;10396428;28;19925;-74
2021/12/02 15:54:53;;;;;;;;;;;;;;;5.46;100.00;93907.19;10402045;28;19921;-74
2021/12/02 15:59:54;;;;;;;;;;;;;;;5.52;100.00;93896.53;10401734;28;19924;-78
2021/12/02 16:05:02;;;;;;;;;;;;;;;5.63;100.00;93917.63;10401167;28;19916;-76
2021/12/02 16:15:16;;;;;;;;;;;;;;;5.27;100.00;93922.84;10361775;28;19914;-76
2021/12/02 16:20:20;;;;;;;;;;;;;;;5.09;100.00;93918.75;10361404;28;19928;-75
2021/12/02 16:25:21;;;;;;;;;;;;;;;4.77;100.00;93921.50;10382044;28;19978;-75
2021/12/02 16:30:22;;;;;;;;;;;;;;;4.91;100.00;93932.50;10401462;28;19943;-74
2021/12/02 16:35:23;;;;;;;;;;;;;;;4.95;100.00;93945.06;10384265;28;19920;-73
2021/12/02 16:40:27;;;;;;;;;;;;;;;4.83;100.00;93941.78;10376032;28;20004;-77
2021/12/02 16:45:35;;;;;;;;;;;;;;;4.64;100.00;93946.69;10359476;28;20028;-74
2021/12/02 16:50:38;;;;;;;;;;;;;;;4.84;100.00;93916.72;10359832;28;19925;-75
2021/12/02 16:55:39;;;;;;;;;;;;;;;4.56;100.00;93947.97;10376413;28;20458;-81
2021/12/02 17:00:44;;;;;;;;;;;;;;;4.68;100.00;93913.19;10361477;28;20009;-73
2021/12/02 17:05:46;;;;;;;;;;;;;;;4.60;100.00;93927.78;10358854;28;19917;-73
2021/12/02 17:10:52;;;;;;;;;;;;;;;4.61;100.00;93933.91;10360087;28;19917;-73
2021/12/02 17:15:53;;;;;;;;;;;;;;;4.84;100.00;93905.28;10375768;28;19917;-75
2021/12/02 17:20:53;;;;;;;;;;;;;;;5.01;100.00;93913.94;10377933;28;19917;-73
2021/12/02 17:25:53;;;;;;;;;;;;;;;5.07;100.00;93936.06;10364235;28;19932;-75
2021/12/02 17:30:54;;;;;;;;;;;;;;;5.09;100.00;93937.41;10400209;28;19920;-74
2021/12/02 17:35:54;;;;;;;;;;;;;;;5.09;100.00;93907.28;10399505;28;20001;-74
2021/12/02 17:40:56;;;;;;;;;;;;;;;5.07;100.00;93933.41;10387487;28;19917;-79
2021/12/02 17:45:57;;;;;;;;;;;;;;;5.07;100.00;93928.84;10375013;28;19960;-74
2021/12/02 17:50:59;;;;;;;;;;;;;;;5.38;100.00;93926.34;10363952;28;20008;-75
2021/12/02 17:55:59;;;;;;;;;;;;;;;5.49;100.00;93913.84;10374555;28;19914;-78
2021/12/02 18:01:00;;;;;;;;;;;;;;;5.57;100.00;93899.25;10374409;28;20304;-76
2021/12/02 18:06:00;;;;;;;;;;;;;;;5.59;100.00;93913.88;10375272;28;20419;-74
2021/12/02 18:11:01;;;;;;;;;;;;;;;5.37;100.00;93886.63;10365517;28;20422;-81
2021/12/02 18:16:02;;;;;;;;;;;;;;;5.18;100.00;93883.63;10348693;28;19928;-75
2021/12/02 18:21:03;;;;;;;;;;;;;;;5.21;100.00;93905.22;10365090;28;20030;-76
2021/12/02 18:26:04;;;;;;;;;;;;;;;5.03;100.00;93909.13;10394725;28;20403;-74
2021/12/02 18:31:07;;;;;;;;;;;;;;;4.93;100.00;93890.44;10405171;28;19917;-74
2021/12/02 18:36:07;;;;;;;;;;;;;;;4.77;100.00;93845.13;10401947;28;19921;-74
2021/12/02 18:41:08;;;;;;;;;;;;;;;4.67;100.00;93916.09;10403803;28;20387;-78
2021/12/02 18:46:08;;;;;;;;;;;;;;;4.74;100.00;93848.28;10404121;28;20394;-75
2021/12/02 18:51:08;;;;;;;;;;;;;;;5.00;100.00;93885.69;10398621;28;19928;-75
2021/12/02 18:56:09;;;;;;;;;;;;;;;5.14;100.00;93916.09;10385516;28;19917;-73
2021/12/02 19:01:11;;;;;;;;;;;;;;;5.16;100.00;93905.19;10381183;28;19918;-73
2021/12/02 19:06:19;;;;;;;;;;;;;;;4.99;100.00;93924.00;10371357;28;19929;-79
2021/12/02 19:27:17;;;;;;;;;;;;;;;4.72;100.00;93908.97;10362983;28;19934;-77
2021/12/02 19:32:17;;;;;;;;;;;;;;;4.72;100.00;93903.63;10400035;28;20394;-79
2021/12/02 19:37:18;;;;;;;;;;;;;;;4.74;100.00;93888.19;10384804;28;19943;-74
2021/12/02 19:42:18;;;;;;;;;;;;;;;4.73;100.00;93896.44;10402051;28;19952;-74
2021/12/02 19:47:19;;;;;;;;;;;;;;;4.81;100.00;93840.06;10401741;28;19913;-75
2021/12/02 19:52:20;;;;;;;;;;;;;;;4.81;100.00;93850.69;10395299;28;20386;-77
2021/12/02 19:57:22;;;;;;;;;;;;;;;4.73;100.00;93889.28;10360796;28;19925;-81
2021/12/02 20:02:22;;;;;;;;;;;;;;;4.76;100.00;93887.97;10378450;28;19917;-78
2021/12/02 20:07:23;;;;;;;;;;;;;;;4.68;100.00;93893.75;10362264;28;19925;-76
2021/12/02 20:12:23;;;;;;;;;;;;;;;4.62;100.00;93824.53;10400256;28;20003;-75
2021/12/02 20:17:26;;;;;;;;;;;;;;;4.43;100.00;93849.97;10367487;28;19918;-79
2021/12/02 20:22:28;;;;;;;;;;;;;;;4.64;100.00;93848.22;10359347;28;19921;-75
2021/12/02 20:27:28;;;;;;;;;;;;;;;4.62;100.00;93826.41;10367005;28;20378;-74
2021/12/02 20:32:30;;;;;;;;;;;;;;;4.72;100.00;93834.44;10397728;28;19917;-80
2021/12/02 20:37:30;;;;;;;;;;;;;;;4.48;100.00;93850.00;10364988;28;19917;-73
2021/12/02 20:42:31;;;;;;;;;;;;;;;4.57;100.00;93856.44;10370950;28;20299;-74
2021/12/02 20:47:41;;;;;;;;;;;;;;;4.74;100.00;93869.56;10367753;28;20009;-75
2021/12/02 20:52:41;;;;;;;;;;;;;;;4.77;100.00;93847.78;10358738;28;19913;-76
2021/12/02 20:57:44;;;;;;;;;;;;;;;4.85;100.00;93838.47;10373774;28;20293;-75
2021/12/02 21:02:44;;;;;;;;;;;;;;;4.73;100.00;93833.38;10390388;28;20282;-74
2021/12/02 21:07:45;;;;;;;;;;;;;;;4.06;100.00;93837.47;10362942;28;19913;-75
2021/12/02 21:12:48;;;;;;;;;;;;;;;4.31;100.00;93841.38;10375224;28;19913;-78
2021/12/02 21:17:49;;;;;;;;;;;;;;;4.15;100.00;93827.19;10391873;28;19979;-74
2021/12/02 21:22:50;;;;;;;;;;;;;;;4.07;100.00;93818.59;10396979;28;20010;-75
2021/12/02 21:27:51;;;;;;;;;;;;;;;4.23;100.00;93800.09;10384306;28;19933;-76
2021/12/02 21:32:54;;;;;;;;;;;;;;;4.23;100.00;93810.75;10355529;28;20411;-76
2021/12/02 21:37:57;;;;;;;;;;;;;;;4.32;100.00;93795.09;10358122;28;19917;-73
2021/12/02 21:42:59;;;;;;;;;;;;;;;4.32;100.00;93811.84;10363746;28;20052;-75
2021/12/02 21:47:59;;;;;;;;;;;;;;;4.31;100.00;93801.47;10405085;28;19921;-79
2021/12/02 21:53:00;;;;;;;;;;;;;;;4.03;100.00;93822.84;10404726;28;19920;-75
2021/12/02 21:58:03;;;;;;;;;;;;;;;4.05;100.00;93806.63;10405081;28;19949;-74
2021/12/02 22:03:03;;;;;;;;;;;;;;;3.90;100.00;93802.78;10380554;28;20442;-78
2021/12/02 22:08:04;;;;;;;;;;;;;;;4.09;100.00;93805.84;10380850;28;19913;-77
2021/12/02 22:13:04;;;;;;;;;;;;;;;4.38;100.00;93783.41;10363484;28;19920;-81
2021/12/02 22:18:05;;;;;;;;;;;;;;;4.54;100.00;93753.19;10377918;28;20399;-75
2021/12/02 22:23:05;;;;;;;;;;;;;;;4.51;100.00;93779.50;10364865;28;20433;-79
2021/12/02 22:28:06;;;;;;;;;;;;;;;4.38;100.00;93791.41;10392846;28;19935;-75
2021/12/02 22:33:06;;;;;;;;;;;;;;;4.57;100.00;93768.63;10403320;28;19927;-74
2021/12/02 22:38:11;;;;;;;;;;;;;;;4.69;100.00;93784.38;10402695;28;19917;-75
2021/12/02 22:43:11;;;;;;;;;;;;;;;4.79;100.00;93759.66;10402302;28;19913;-75
2021/12/02 22:48:12;;;;;;;;;;;;;;;4.45;100.00;93744.91;10402519;28;19913;-79
2021/12/02 22:53:13;;;;;;;;;;;;;;;4.36;100.00;93767.72;10403309;28;20035;-82
2021/12/02 22:58:15;;;;;;;;;;;;;;;4.44;100.00;93771.75;10402671;28;19924;-75
2021/12/02 23:03:15;;;;;;;;;;;;;;;4.31;100.00;93743.75;10404011;28;19913;-77
2021/12/02 23:08:16;;;;;;;;;;;;;;;4.39;100.00;93774.38;10403738;28;19917;-75
2021/12/02 23:13:16;;;;;;;;;;;;;;;4.44;100.00;93758.47;10362102;28;19967;-78
2021/12/02 23:18:17;;;;;;;;;;;;;;;4.19;100.00;93741.31;10362699;28;19921;-75
2021/12/02 23:23:17;;;;;;;;;;;;;;;4.49;100.00;93728.41;10380283;28;19945;-76
2021/12/02 23:28:19;;;;;;;;;;;;;;;4.51;100.00;93737.75;10402808;28;20379;-75
2021/12/02 23:33:24;;;;;;;;;;;;;;;4.30;100.00;93750.16;10402772;28;20326;-75
2021/12/02 23:38:25;;;;;;;;;;;;;;;4.10;100.00;93751.63;10368880;28;19924;-73
2021/12/02 23:43:26;;;;;;;;;;;;;;;4.01;100.00;93725.78;10364701;28;19913;-74
2021/12/02 23:48:27;;;;;;;;;;;;;;;4.16;100.00;93715.22;10360535;28;19922;-75
2021/12/02 23:53:28;;;;;;;;;;;;;;;4.12;100.00;93706.16;10384963;28;20103;-75
2021/12/02 23:58:28;;;;;;;;;;;;;;;4.23;100.00;93683.88;10389239;28;19991;-73
